Time;durP1;ratioP1;P1;durP2;ratioP2;P2;SDS_P1;SDS_P2;PMS_P1;PMS_P2;Temp;Humidity;BMP_temperature;BMP_pressure;BME280_temperature;BME280_humidity;BME280_pressure;Samples;Min_cycle;Max_cycle;Signal;HPM_P1;HPM_P2
2022/02/06 00:02:25;;;;;;;5.83;3.97;;;;;;;5.92;93.58;100658.34;4997410;28;20214;-74
2022/02/06 00:04:51;;;;;;;5.23;4.27;;;;;;;5.88;93.68;100641.25;4992402;28;20215;-74
2022/02/06 00:07:16;;;;;;;5.93;4.50;;;;;;;5.88;93.40;100638.72;4992009;28;20223;-74
2022/02/06 00:09:45;;;;;;;5.63;4.17;;;;;;;5.88;93.73;100639.59;4990603;28;20192;-74
2022/02/06 00:12:10;;;;;;;6.27;4.27;;;;;;;5.87;93.65;100625.16;4992211;28;20219;-74
2022/02/06 00:14:35;;;;;;;6.40;3.70;;;;;;;5.89;94.10;100628.59;4987997;28;20202;-74
2022/02/06 00:17:01;;;;;;;4.13;3.73;;;;;;;5.90;93.64;100622.69;5007618;28;20266;-74
2022/02/06 00:19:26;;;;;;;5.27;4.00;;;;;;;5.90;93.64;100624.41;4990850;28;20280;-74
2022/02/06 00:21:52;;;;;;;4.77;3.60;;;;;;;5.89;93.35;100630.31;4992598;28;20192;-73
2022/02/06 00:24:25;;;;;;;5.17;3.63;;;;;;;5.91;94.05;100604.13;4992532;28;20189;-73
2022/02/06 00:27:03;;;;;;;7.30;3.53;;;;;;;5.90;94.09;100604.91;4992327;28;20187;-73
2022/02/06 00:32:07;;;;;;;4.30;3.90;;;;;;;5.89;94.42;100587.97;4991947;28;20214;-74
2022/02/06 00:39:45;;;;;;;4.23;3.00;;;;;;;5.97;93.67;100573.84;4992929;28;20220;-73
2022/02/06 00:42:11;;;;;;;5.17;4.00;;;;;;;5.96;93.84;100568.69;4990051;28;20254;-73
2022/02/06 00:44:36;;;;;;;4.83;3.40;;;;;;;5.96;94.53;100561.97;4998088;28;20839;-73
2022/02/06 00:47:02;;;;;;;4.77;3.90;;;;;;;5.97;93.71;100561.13;4986217;28;20204;-73
2022/02/06 00:49:29;;;;;;;4.90;3.70;;;;;;;6.00;93.42;100551.09;4992936;28;20717;-73
2022/02/06 00:52:03;;;;;;;5.60;3.63;;;;;;;6.07;93.39;100544.50;4985382;28;20294;-73
2022/02/06 00:54:29;;;;;;;4.73;3.97;;;;;;;6.06;93.53;100540.22;4988678;28;20199;-73
2022/02/06 00:56:54;;;;;;;4.80;3.73;;;;;;;6.08;93.45;100554.72;4990653;28;20250;-73
2022/02/06 00:59:20;;;;;;;5.37;3.57;;;;;;;6.08;93.43;100556.41;5011080;28;20623;-73
2022/02/06 01:01:46;;;;;;;5.37;4.20;;;;;;;6.11;93.34;100538.69;4989663;28;20209;-74
2022/02/06 01:04:13;;;;;;;4.17;3.77;;;;;;;6.10;93.62;100529.34;4992079;28;20204;-73
2022/02/06 01:06:39;;;;;;;5.10;4.27;;;;;;;6.08;94.04;100519.13;4988185;28;20187;-74
2022/02/06 01:09:05;;;;;;;5.23;3.87;;;;;;;6.09;93.59;100508.19;5006150;28;20274;-74
2022/02/06 01:11:33;;;;;;;4.30;3.90;;;;;;;6.12;93.65;100523.50;4989881;28;20285;-74
2022/02/06 01:16:31;;;;;;;4.40;3.80;;;;;;;6.14;94.58;100511.72;4988108;28;20252;-74
2022/02/06 01:19:02;;;;;;;5.33;3.60;;;;;;;6.12;94.73;100505.72;4984235;28;20207;-74
2022/02/06 01:24:37;;;;;;;4.67;3.53;;;;;;;6.11;93.99;100491.28;4994967;28;20188;-74
2022/02/06 01:26:53;;;;;;;4.43;3.67;;;;;;;6.13;94.50;100484.56;4980498;28;20685;-74
2022/02/06 01:34:11;;;;;;;4.07;3.33;;;;;;;6.17;94.58;100463.50;4984127;28;20207;-74
2022/02/06 01:36:44;;;;;;;6.20;3.80;;;;;;;6.19;93.96;100451.72;4999289;28;20199;-74
2022/02/06 01:41:58;;;;;;;5.73;3.40;;;;;;;6.18;95.06;100457.59;4999383;28;20189;-74
2022/02/06 02:01:25;;;;;;;4.30;3.03;;;;;;;6.27;94.36;100404.50;4984096;28;20223;-73
2022/02/06 02:17:06;;;;;;;3.80;2.57;;;;;;;6.32;94.73;100354.69;4992013;28;20674;-73
2022/02/06 02:19:49;;;;;;;4.50;3.20;;;;;;;6.31;94.79;100337.66;4995768;28;20209;-74
2022/02/06 02:48:44;;;;;;;3.07;2.53;;;;;;;6.44;95.42;100291.44;4984519;28;20184;-73
2022/02/06 02:51:11;;;;;;;3.60;3.00;;;;;;;6.46;95.06;100284.72;4987076;28;20275;-73
2022/02/06 02:53:50;;;;;;;3.97;3.13;;;;;;;6.45;94.75;100292.31;4971579;28;20195;-74
2022/02/06 02:56:38;;;;;;;3.30;2.90;;;;;;;6.50;94.33;100283.94;4978447;28;20247;-74
2022/02/06 02:59:27;;;;;;;5.53;3.40;;;;;;;6.47;94.96;100275.38;4985953;28;20204;-73
2022/02/06 03:01:58;;;;;;;4.30;2.80;;;;;;;6.45;95.39;100270.25;4978645;28;20193;-73
2022/02/06 03:04:24;;;;;;;3.13;2.63;;;;;;;6.50;95.09;100255.13;4987962;28;20563;-73
2022/02/06 03:06:49;;;;;;;3.07;2.73;;;;;;;6.49;95.21;100250.88;4986711;28;20199;-74
2022/02/06 03:09:16;;;;;;;3.90;2.50;;;;;;;6.49;95.12;100249.19;4983881;28;20192;-73
2022/02/06 03:11:41;;;;;;;3.87;3.00;;;;;;;6.46;95.62;100259.28;4980703;28;20295;-73
2022/02/06 03:14:11;;;;;;;2.87;2.53;;;;;;;6.51;95.51;100251.75;4989302;28;20199;-73
2022/02/06 03:16:44;;;;;;;4.20;2.80;;;;;;;6.52;95.27;100248.41;4983106;28;20204;-74
2022/02/06 03:19:14;;;;;;;4.67;2.47;;;;;;;6.55;95.46;100236.66;4985243;28;20289;-73
2022/02/06 03:21:41;;;;;;;3.87;2.20;;;;;;;6.56;94.69;100232.41;4991176;28;20559;-73
2022/02/06 03:24:19;;;;;;;2.97;2.67;;;;;;;6.54;95.78;100227.25;4996782;28;20219;-73
2022/02/06 03:26:46;;;;;;;3.50;2.83;;;;;;;6.59;95.85;100227.41;4991421;28;20199;-73
2022/02/06 03:29:12;;;;;;;3.47;2.80;;;;;;;6.59;95.36;100219.78;4992902;28;20219;-73
2022/02/06 03:31:38;;;;;;;3.63;2.70;;;;;;;6.60;95.84;100224.03;4989168;28;20231;-74
2022/02/06 03:34:04;;;;;;;4.67;2.63;;;;;;;6.61;95.27;100218.97;4997251;28;20199;-74
2022/02/06 03:36:29;;;;;;;3.20;2.70;;;;;;;6.65;95.95;100218.25;4998233;28;20199;-73
2022/02/06 03:38:56;;;;;;;4.90;2.87;;;;;;;6.66;95.40;100203.81;4996609;28;20203;-73
2022/02/06 03:41:23;;;;;;;2.80;2.30;;;;;;;6.65;95.26;100207.19;4998178;28;20269;-73
2022/02/06 03:46:58;;;;;;;3.33;2.17;;;;;;;6.66;95.07;100188.56;4990292;28;20195;-73
2022/02/06 03:49:27;;;;;;;3.03;1.63;;;;;;;6.75;95.15;100210.00;4991215;28;20200;-73
2022/02/06 03:51:52;;;;;;;4.00;2.20;;;;;;;6.72;94.92;100191.28;4987868;28;20552;-73
2022/02/06 03:54:18;;;;;;;3.63;2.20;;;;;;;6.69;95.40;100188.66;4996451;28;20199;-73
2022/02/06 03:56:44;;;;;;;2.83;2.07;;;;;;;6.70;95.65;100195.44;4982831;28;20218;-73
2022/02/06 03:59:10;;;;;;;3.20;1.90;;;;;;;6.78;95.07;100173.59;5006491;28;20278;-73
2022/02/06 04:01:35;;;;;;;3.70;1.93;;;;;;;6.76;95.37;100175.22;4982469;28;20627;-73
2022/02/06 04:04:00;;;;;;;2.57;1.87;;;;;;;6.77;95.19;100161.72;4979149;28;20785;-73
2022/02/06 04:06:27;;;;;;;2.47;1.83;;;;;;;6.78;95.33;100171.06;5007986;28;20585;-73
2022/02/06 04:08:55;;;;;;;2.00;1.90;;;;;;;6.74;94.92;100151.44;4992698;28;20232;-74
2022/02/06 04:11:32;;;;;;;3.97;1.63;;;;;;;6.73;95.99;100154.81;4992508;28;20226;-73
2022/02/06 04:14:21;;;;;;;3.60;1.60;;;;;;;6.74;95.68;100154.00;4991515;28;20191;-73
2022/02/06 04:16:52;;;;;;;3.70;1.97;;;;;;;6.74;96.15;100147.25;5007351;28;20191;-73
2022/02/06 04:19:24;;;;;;;2.20;1.63;;;;;;;6.81;95.58;100144.00;5023842;28;20578;-73
2022/02/06 04:21:49;;;;;;;2.17;1.97;;;;;;;6.79;95.44;100142.25;5007636;28;20299;-73
2022/02/06 04:24:15;;;;;;;3.17;1.83;;;;;;;6.79;95.60;100144.78;4992486;28;20259;-74
2022/02/06 04:26:41;;;;;;;3.53;1.87;;;;;;;6.79;95.52;100122.75;5007327;28;20199;-73
2022/02/06 04:29:07;;;;;;;2.33;1.77;;;;;;;6.75;96.28;100120.97;4990701;28;20298;-73
2022/02/06 04:31:33;;;;;;;2.50;1.90;;;;;;;6.77;96.14;100126.09;4990513;28;20224;-73
2022/02/06 04:33:58;;;;;;;3.17;2.00;;;;;;;6.80;96.04;100119.38;4992313;28;20246;-73
2022/02/06 04:36:30;;;;;;;2.37;2.13;;;;;;;6.86;96.07;100108.50;4992220;28;20196;-73
2022/02/06 04:39:09;;;;;;;1.43;1.33;;;;;;;6.87;95.54;100097.47;4992069;28;20172;-73
2022/02/06 04:44:46;;;;;;;2.10;1.60;;;;;;;6.85;96.11;100084.72;4992140;28;20270;-73
2022/02/06 04:53:06;;;;;;;3.07;1.97;;;;;;;6.83;97.05;100076.22;4990508;28;20211;-73
2022/02/06 04:55:42;;;;;;;2.93;1.70;;;;;;;6.88;96.73;100073.75;4974769;28;20204;-74
2022/02/06 05:24:48;;;;;;;3.07;1.20;;;;;;;7.07;96.61;100023.28;4991494;28;20658;-73
2022/02/06 05:30:27;;;;;;;1.47;1.37;;;;;;;7.08;95.97;100019.91;4990978;28;20720;-73
2022/02/06 05:32:38;;;;;;;1.60;1.50;;;;;;;7.12;95.40;100025.91;4988654;28;20235;-73
2022/02/06 05:35:05;;;;;;;1.63;1.20;;;;;;;7.17;95.31;100047.19;4967843;28;20199;-73
2022/02/06 05:37:31;;;;;;;4.03;1.57;;;;;;;7.16;95.22;100017.50;4990891;28;20665;-73
2022/02/06 05:39:56;;;;;;;3.67;1.53;;;;;;;7.13;95.84;100020.84;4989566;28;20216;-73
2022/02/06 05:42:22;;;;;;;2.40;1.20;;;;;;;7.15;96.50;100010.69;4990239;28;20226;-73
2022/02/06 05:44:54;;;;;;;1.50;1.30;;;;;;;7.14;96.81;100020.00;4990996;28;20191;-74
2022/02/06 05:47:20;;;;;;;2.40;1.20;;;;;;;7.22;96.07;100007.41;4990874;28;20184;-73
2022/02/06 05:49:45;;;;;;;2.67;1.20;;;;;;;7.19;95.37;99995.50;4989207;28;20192;-74
2022/02/06 05:52:12;;;;;;;1.63;1.13;;;;;;;7.21;95.51;100013.34;4989914;28;20220;-74
2022/02/06 05:54:37;;;;;;;1.97;1.10;;;;;;;7.18;96.45;100011.59;4990657;28;20234;-73
2022/02/06 05:57:04;;;;;;;1.30;1.20;;;;;;;7.22;95.90;100009.97;4989627;28;20192;-73
2022/02/06 05:59:30;;;;;;;1.93;1.20;;;;;;;7.18;96.90;100023.50;4990427;28;20249;-74
2022/02/06 06:01:55;;;;;;;1.30;1.00;;;;;;;7.18;97.14;100011.59;5005863;28;20653;-74
2022/02/06 06:04:20;;;;;;;1.70;1.60;;;;;;;7.17;97.03;100030.25;4990618;28;20210;-74
2022/02/06 06:06:46;;;;;;;1.90;1.40;;;;;;;7.16;97.40;100014.94;4989470;28;20262;-74
2022/02/06 06:09:11;;;;;;;2.40;1.10;;;;;;;7.17;97.99;100016.66;4990480;28;20191;-73
2022/02/06 06:11:37;;;;;;;1.30;1.20;;;;;;;7.16;97.75;100010.72;4990448;28;20680;-73
2022/02/06 06:14:02;;;;;;;2.27;1.33;;;;;;;7.16;97.41;100010.72;4990781;28;20187;-73
2022/02/06 06:16:27;;;;;;;1.30;1.20;;;;;;;7.17;97.22;100001.38;4989581;28;20176;-73
2022/02/06 06:18:53;;;;;;;3.63;1.40;;;;;;;7.16;97.94;100003.09;4989026;28;20242;-73
2022/02/06 06:21:21;;;;;;;1.80;1.57;;;;;;;7.18;97.60;100003.13;4990651;28;20203;-73
2022/02/06 06:23:46;;;;;;;1.57;1.23;;;;;;;7.21;97.87;100000.63;4990558;28;20222;-73
2022/02/06 06:26:16;;;;;;;2.50;1.50;;;;;;;7.21;97.66;100005.72;4990607;28;20211;-73
2022/02/06 06:28:41;;;;;;;1.57;1.40;;;;;;;7.21;97.51;99996.41;4994657;28;20262;-73
2022/02/06 06:31:06;;;;;;;2.20;1.30;;;;;;;7.22;97.39;99993.00;4981365;28;20697;-73
2022/02/06 06:33:32;;;;;;;2.70;1.70;;;;;;;7.25;98.12;99985.44;4970971;28;20196;-73
2022/02/06 06:35:58;;;;;;;2.13;1.50;;;;;;;7.25;97.61;99979.47;4969624;28;20204;-73
2022/02/06 06:38:24;;;;;;;3.10;1.40;;;;;;;7.23;97.27;99976.91;4970679;28;20662;-73
2022/02/06 06:40:50;;;;;;;2.87;1.30;;;;;;;7.25;97.86;99979.47;4970891;28;20219;-73
2022/02/06 06:43:15;;;;;;;3.37;1.13;;;;;;;7.27;97.65;99978.69;4970412;28;20556;-73
2022/02/06 06:45:41;;;;;;;2.77;1.40;;;;;;;7.26;97.99;99965.91;4987004;28;20237;-74
2022/02/06 06:48:06;;;;;;;1.30;1.17;;;;;;;7.25;97.92;99962.53;4989895;28;20195;-73
2022/02/06 06:50:33;;;;;;;3.73;1.40;;;;;;;7.28;98.33;99969.38;4990043;28;20217;-73
2022/02/06 06:53:04;;;;;;;3.13;1.63;;;;;;;7.27;97.59;99960.03;4990772;28;20661;-74
2022/02/06 06:55:32;;;;;;;2.03;1.30;;;;;;;7.26;97.99;99971.00;4994240;28;20184;-74
2022/02/06 07:00:43;;;;;;;1.70;1.40;;;;;;;7.27;97.54;99944.75;4993988;28;20258;-74
2022/02/06 07:03:08;;;;;;;3.00;1.53;;;;;;;7.28;98.41;99949.84;4974545;28;20187;-73
2022/02/06 07:05:34;;;;;;;1.70;1.43;;;;;;;7.29;98.29;99950.72;4973234;28;20331;-73
2022/02/06 07:07:59;;;;;;;2.20;1.40;;;;;;;7.30;98.83;99938.00;4972858;28;20200;-73
2022/02/06 07:10:25;;;;;;;2.70;1.50;;;;;;;7.29;98.23;99928.66;4973233;28;20211;-74
2022/02/06 07:12:50;;;;;;;2.23;1.37;;;;;;;7.28;98.13;99923.53;4989285;28;20231;-74
2022/02/06 07:15:16;;;;;;;3.30;1.50;;;;;;;7.28;98.16;99918.44;4973054;28;20595;-74
2022/02/06 07:17:43;;;;;;;3.13;1.43;;;;;;;7.28;98.87;99908.25;4973457;28;20196;-74
2022/02/06 07:20:09;;;;;;;1.87;1.20;;;;;;;7.30;98.44;99899.81;4991910;28;20253;-74
2022/02/06 07:22:36;;;;;;;1.50;1.30;;;;;;;7.32;98.48;99903.22;4992302;28;20268;-74
2022/02/06 07:25:04;;;;;;;1.73;1.23;;;;;;;7.33;98.48;99911.75;4992449;28;20191;-73
2022/02/06 07:27:33;;;;;;;1.77;1.43;;;;;;;7.34;97.85;99901.59;4993620;28;20219;-73
2022/02/06 07:30:03;;;;;;;2.47;1.50;;;;;;;7.37;97.91;99911.81;4991787;28;20251;-73
2022/02/06 07:32:30;;;;;;;1.50;1.40;;;;;;;7.35;97.72;99903.28;4974663;28;20293;-73
2022/02/06 07:34:56;;;;;;;1.77;1.67;;;;;;;7.34;99.04;99901.59;4992240;28;20195;-73
2022/02/06 07:37:21;;;;;;;1.90;1.37;;;;;;;7.35;99.13;99898.22;4993425;28;20238;-73
2022/02/06 07:39:46;;;;;;;3.23;1.80;;;;;;;7.35;99.17;99907.53;4993271;28;20268;-74
2022/02/06 07:42:12;;;;;;;3.30;2.43;;;;;;;7.36;98.94;99909.22;4992017;28;20279;-74
2022/02/06 07:44:47;;;;;;;2.40;1.80;;;;;;;7.36;99.79;99914.31;4976488;28;20172;-74
2022/02/06 07:47:19;;;;;;;2.63;1.60;;;;;;;7.31;99.51;99924.44;4993200;28;20207;-74
2022/02/06 07:49:47;;;;;;;4.20;2.17;;;;;;;7.27;100.00;99930.31;4991671;28;20256;-74
2022/02/06 07:52:13;;;;;;;0.73;0.70;;;;;;;7.11;99.55;99922.38;4992863;28;20712;-74
2022/02/06 07:54:38;;;;;;;2.57;0.90;;;;;;;7.04;98.17;99938.38;4993079;28;20188;-74
2022/02/06 07:57:04;;;;;;;2.37;0.77;;;;;;;7.02;97.69;99933.25;4993048;28;20183;-74
2022/02/06 07:59:31;;;;;;;3.73;1.40;;;;;;;6.99;96.76;99935.72;4992545;28;20179;-74
2022/02/06 08:01:56;;;;;;;1.93;1.00;;;;;;;7.00;96.19;99934.06;5024303;28;20192;-74
2022/02/06 08:04:22;;;;;;;1.60;1.00;;;;;;;7.01;96.47;99949.31;4992438;28;20727;-74
2022/02/06 08:06:47;;;;;;;1.80;0.87;;;;;;;6.98;97.10;99945.88;4991149;28;20800;-74
2022/02/06 08:09:12;;;;;;;3.03;0.80;;;;;;;6.91;96.92;99937.25;4992450;28;20633;-74
2022/02/06 08:11:44;;;;;;;1.33;0.60;;;;;;;6.89;96.78;99938.06;4992733;28;20211;-74
2022/02/06 08:14:09;;;;;;;0.90;0.50;;;;;;;6.88;96.59;99932.13;4991313;28;20200;-74
2022/02/06 08:16:35;;;;;;;0.60;0.50;;;;;;;6.89;95.21;99930.44;4991375;28;20226;-73
2022/02/06 08:19:00;;;;;;;1.80;0.80;;;;;;;6.89;94.84;99926.22;4990965;28;20211;-74
2022/02/06 08:21:26;;;;;;;3.23;0.77;;;;;;;6.87;94.41;99914.28;4991411;28;20211;-72
2022/02/06 08:23:51;;;;;;;2.00;0.57;;;;;;;6.86;94.08;99908.34;4991213;28;20188;-73
2022/02/06 08:26:17;;;;;;;1.87;0.50;;;;;;;6.87;93.49;99899.88;4992249;28;20191;-73
2022/02/06 08:28:42;;;;;;;2.53;0.50;;;;;;;6.86;93.80;99899.88;4990954;28;20602;-73
2022/02/06 08:31:08;;;;;;;1.13;0.40;;;;;;;6.85;93.87;99893.03;4991990;28;20246;-73
2022/02/06 08:33:33;;;;;;;1.33;0.47;;;;;;;6.81;94.08;99889.59;4990796;28;20195;-75
2022/02/06 08:35:59;;;;;;;0.60;0.40;;;;;;;6.82;94.30;99886.22;4990995;28;20246;-74
2022/02/06 08:38:25;;;;;;;1.10;0.40;;;;;;;6.83;95.14;99870.13;4990610;28;20199;-75
2022/02/06 08:40:50;;;;;;;0.60;0.43;;;;;;;6.83;94.48;99859.09;4992064;28;20206;-75
2022/02/06 08:43:15;;;;;;;0.90;0.50;;;;;;;6.83;95.19;99859.09;4991710;28;20184;-74
2022/02/06 08:45:41;;;;;;;2.00;0.70;;;;;;;6.79;95.05;99855.66;4991398;28;20227;-74
2022/02/06 08:48:06;;;;;;;1.67;0.70;;;;;;;6.81;95.21;99851.44;4987537;28;20206;-73
2022/02/06 08:50:33;;;;;;;0.97;0.50;;;;;;;6.77;94.95;99836.94;5007245;28;20220;-74
2022/02/06 08:52:59;;;;;;;2.50;0.97;;;;;;;6.83;95.06;99833.66;4990755;28;20230;-74
2022/02/06 08:55:26;;;;;;;1.17;0.80;;;;;;;6.82;96.00;99825.16;4985345;28;20700;-74
2022/02/06 08:57:52;;;;;;;2.13;0.60;;;;;;;6.80;94.89;99826.81;4990990;28;20192;-73
2022/02/06 09:00:19;;;;;;;2.20;1.20;;;;;;;6.75;95.54;99820.81;4989786;28;20242;-73
2022/02/06 09:02:45;;;;;;;3.23;1.40;;;;;;;6.74;96.09;99813.13;4991331;28;20553;-74
2022/02/06 09:05:12;;;;;;;2.33;0.90;;;;;;;6.76;95.39;99807.25;4991379;28;20697;-73
2022/02/06 09:07:42;;;;;;;1.63;0.90;;;;;;;6.79;95.64;99809.84;4991512;28;20196;-73
2022/02/06 09:10:13;;;;;;;0.73;0.60;;;;;;;6.80;95.73;99809.03;4991492;28;20692;-74
2022/02/06 09:12:43;;;;;;;0.73;0.50;;;;;;;6.79;95.76;99807.31;5018046;28;20204;-72
2022/02/06 09:15:10;;;;;;;1.03;0.40;;;;;;;6.79;95.74;99796.28;4986434;28;20203;-73
2022/02/06 09:17:35;;;;;;;1.40;0.73;;;;;;;6.80;96.42;99795.44;4979464;28;20200;-74
2022/02/06 09:20:01;;;;;;;1.50;0.67;;;;;;;6.79;96.13;99794.59;4990707;28;20223;-73
2022/02/06 09:22:26;;;;;;;0.73;0.53;;;;;;;6.76;95.45;99788.56;5022454;28;20885;-73
2022/02/06 09:24:51;;;;;;;4.60;0.80;;;;;;;6.78;96.13;99787.75;4990794;28;20692;-73
2022/02/06 09:27:17;;;;;;;0.70;0.70;;;;;;;6.78;96.45;99767.41;4990889;28;20238;-74
2022/02/06 09:29:42;;;;;;;0.63;0.60;;;;;;;6.81;96.44;99777.66;4972779;28;20294;-73
2022/02/06 09:37:07;;;;;;;1.37;0.50;;;;;;;6.77;96.21;99773.34;4990118;28;20238;-73
2022/02/06 09:39:34;;;;;;;1.80;0.80;;;;;;;6.75;95.91;99759.75;4990341;28;20192;-73
2022/02/06 09:42:00;;;;;;;1.33;0.50;;;;;;;6.77;96.41;99750.44;4990039;28;20210;-73
2022/02/06 09:44:28;;;;;;;1.27;0.60;;;;;;;6.79;97.15;99745.38;4990223;28;20656;-74
2022/02/06 09:46:54;;;;;;;2.80;0.60;;;;;;;6.80;96.76;99737.78;4989046;28;20270;-73
2022/02/06 09:49:21;;;;;;;1.13;0.80;;;;;;;6.79;96.29;99736.09;4988653;28;20223;-73
2022/02/06 09:51:47;;;;;;;1.00;0.70;;;;;;;6.79;96.93;99722.50;4990077;28;20215;-73
2022/02/06 09:54:13;;;;;;;1.00;0.70;;;;;;;6.73;97.28;99720.69;4990168;28;20196;-73
2022/02/06 09:56:44;;;;;;;1.30;0.90;;;;;;;6.83;97.52;99720.03;4989042;28;20188;-74
2022/02/06 09:59:17;;;;;;;0.83;0.60;;;;;;;6.77;97.20;99708.91;4989954;28;20183;-73
2022/02/06 10:01:45;;;;;;;1.83;0.60;;;;;;;6.80;97.93;99706.41;4989965;28;20298;-74
2022/02/06 10:04:15;;;;;;;1.60;0.60;;;;;;;6.82;97.13;99704.75;4990046;28;20184;-74
2022/02/06 10:07:12;;;;;;;1.80;0.80;;;;;;;6.81;97.85;99698.78;4988795;28;20203;-74
2022/02/06 10:09:48;;;;;;;1.17;0.70;;;;;;;6.79;98.04;99686.88;4987161;28;20218;-74
2022/02/06 10:12:15;;;;;;;1.73;1.20;;;;;;;6.75;98.58;99680.91;4989281;28;20211;-73
2022/02/06 10:14:40;;;;;;;2.40;1.63;;;;;;;6.75;97.86;99664.78;4989855;28;20195;-73
2022/02/06 10:17:06;;;;;;;3.07;1.13;;;;;;;6.71;97.92;99650.28;4988730;28;20191;-73
2022/02/06 10:19:32;;;;;;;1.07;0.90;;;;;;;6.74;98.57;99645.25;4989483;28;20227;-74
2022/02/06 10:21:59;;;;;;;1.93;1.10;;;;;;;6.75;98.69;99645.28;4989670;28;20191;-73
2022/02/06 10:24:31;;;;;;;3.07;1.23;;;;;;;6.75;98.51;99635.13;4988445;28;20191;-73
2022/02/06 10:27:17;;;;;;;2.00;0.80;;;;;;;6.69;98.63;99635.03;4988384;28;20214;-72
2022/02/06 10:29:44;;;;;;;1.43;0.50;;;;;;;6.75;98.87;99627.50;5020476;28;20561;-72
2022/02/06 10:32:16;;;;;;;0.63;0.50;;;;;;;6.76;98.37;99616.47;4989164;28;20269;-73
2022/02/06 10:34:42;;;;;;;1.83;0.60;;;;;;;6.78;98.90;99613.97;4989520;28;20238;-72
2022/02/06 10:37:09;;;;;;;2.33;0.87;;;;;;;6.75;97.87;99602.06;4989688;28;20207;-74
2022/02/06 10:39:38;;;;;;;1.53;0.60;;;;;;;6.75;98.91;99602.06;4989222;28;20270;-73
2022/02/06 10:42:04;;;;;;;1.20;0.80;;;;;;;6.77;97.93;99577.47;4988485;28;20223;-73
2022/02/06 10:44:30;;;;;;;0.80;0.70;;;;;;;6.82;98.39;99567.38;4983383;28;20239;-74
2022/02/06 10:46:58;;;;;;;1.53;1.00;;;;;;;6.86;98.14;99553.88;4989483;28;20191;-73
2022/02/06 10:49:25;;;;;;;2.63;0.90;;;;;;;6.86;98.66;99554.72;4989207;28;20245;-73
2022/02/06 10:52:00;;;;;;;1.53;1.00;;;;;;;6.87;98.35;99540.31;4989385;28;20230;-73
2022/02/06 10:54:28;;;;;;;1.57;1.20;;;;;;;6.81;98.35;99523.28;4989455;28;20191;-73
2022/02/06 10:57:04;;;;;;;2.53;1.03;;;;;;;6.86;98.74;99508.91;4988033;28;20616;-73
2022/02/06 10:59:56;;;;;;;2.77;1.03;;;;;;;6.89;99.09;99506.41;4988954;28;20195;-72
2022/02/06 11:02:27;;;;;;;2.50;1.10;;;;;;;6.96;98.98;99495.47;4988265;28;20214;-74
2022/02/06 11:05:09;;;;;;;2.07;1.30;;;;;;;7.09;99.85;99476.13;4989478;28;20259;-73
2022/02/06 11:07:34;;;;;;;1.57;1.30;;;;;;;7.23;99.16;99477.13;4987949;28;20192;-74
2022/02/06 11:10:12;;;;;;;1.83;1.00;;;;;;;7.38;100.00;99459.44;4988963;28;20208;-73
2022/02/06 11:12:47;;;;;;;2.03;0.73;;;;;;;7.52;100.00;99451.09;4979783;28;20673;-72
2022/02/06 11:15:23;;;;;;;1.17;1.00;;;;;;;7.65;99.82;99445.25;4970106;28;20809;-73
2022/02/06 11:18:05;;;;;;;1.10;1.00;;;;;;;7.77;98.96;99432.63;4987697;28;20202;-73
2022/02/06 11:20:31;;;;;;;1.10;0.63;;;;;;;7.84;98.72;99442.00;4988134;28;20636;-73
2022/02/06 11:23:02;;;;;;;1.43;0.80;;;;;;;7.89;98.10;99432.72;4989567;28;20190;-72
2022/02/06 11:25:30;;;;;;;1.07;0.70;;;;;;;7.90;97.41;99421.69;4989410;28;20677;-73
2022/02/06 11:28:01;;;;;;;0.70;0.70;;;;;;;7.91;97.61;99404.69;4988402;28;20210;-73
2022/02/06 11:30:26;;;;;;;0.60;0.50;;;;;;;7.93;97.52;99408.09;5004271;28;20211;-73
2022/02/06 11:32:53;;;;;;;0.73;0.67;;;;;;;7.92;96.99;99399.59;4980924;28;20551;-73
2022/02/06 11:35:22;;;;;;;0.90;0.70;;;;;;;7.91;97.11;99385.16;4986170;28;20216;-73
2022/02/06 11:44:10;;;;;;;0.50;0.50;;;;;;;7.95;95.78;99361.41;4992822;28;20191;-73
2022/02/06 11:47:04;;;;;;;0.93;0.60;;;;;;;7.93;95.65;99355.44;5008504;28;20203;-73
2022/02/06 11:49:29;;;;;;;0.70;0.53;;;;;;;7.90;96.09;99349.47;4973026;28;20311;-73
2022/02/06 11:51:59;;;;;;;0.60;0.53;;;;;;;7.88;95.96;99328.22;4972017;28;20240;-75
2022/02/06 11:54:52;;;;;;;0.50;0.50;;;;;;;7.86;95.92;99317.16;4973134;28;20279;-73
2022/02/06 11:57:23;;;;;;;1.13;0.60;;;;;;;7.86;96.99;99324.81;4973010;28;20200;-73
2022/02/06 12:00:07;;;;;;;0.60;0.57;;;;;;;7.87;96.00;99306.97;4972844;28;20638;-73
2022/02/06 12:02:39;;;;;;;1.03;0.50;;;;;;;7.86;96.93;99315.47;4975208;28;20227;-73
2022/02/06 12:05:28;;;;;;;0.87;0.60;;;;;;;7.86;96.62;99309.53;5006881;28;20226;-73
2022/02/06 12:08:07;;;;;;;0.50;0.50;;;;;;;7.86;96.72;99296.78;4992046;28;20211;-73
2022/02/06 12:10:32;;;;;;;1.63;0.70;;;;;;;7.85;97.23;99297.63;4987520;28;20295;-72
2022/02/06 12:13:12;;;;;;;2.00;0.67;;;;;;;7.85;95.88;99279.78;4984623;28;20282;-72
2022/02/06 12:15:48;;;;;;;0.40;0.40;;;;;;;7.85;95.94;99285.75;4992235;28;20559;-73
2022/02/06 12:18:16;;;;;;;1.20;0.50;;;;;;;7.78;96.62;99275.53;4987687;28;20198;-72
2022/02/06 12:20:50;;;;;;;0.63;0.63;;;;;;;7.70;96.23;99278.00;4988889;28;20628;-73
2022/02/06 12:24:03;;;;;;;2.43;0.60;;;;;;;7.66;95.94;99267.81;4992615;28;20184;-73
2022/02/06 12:26:30;;;;;;;0.50;0.50;;;;;;;7.61;98.06;99274.56;4972074;28;20201;-72
2022/02/06 12:29:07;;;;;;;1.70;0.73;;;;;;;7.21;97.87;99270.94;4972908;28;20192;-73
2022/02/06 12:31:33;;;;;;;1.40;0.80;;;;;;;6.85;97.73;99249.44;4972947;28;20733;-73
2022/02/06 12:39:22;;;;;;;1.80;0.87;;;;;;;6.54;96.49;99272.91;4992271;28;20188;-73
2022/02/06 12:41:48;;;;;;;1.43;0.70;;;;;;;6.50;95.80;99266.06;5007338;28;20259;-73
2022/02/06 12:44:16;;;;;;;1.97;0.90;;;;;;;6.48;95.61;99266.06;4991255;28;20222;-73
2022/02/06 12:46:43;;;;;;;2.63;1.17;;;;;;;6.49;95.32;99249.97;4992417;28;20276;-73
2022/02/06 12:49:09;;;;;;;1.57;0.77;;;;;;;6.45;95.88;99252.47;5007168;28;20645;-73
2022/02/06 12:51:37;;;;;;;1.93;0.63;;;;;;;6.46;95.54;99252.50;5006544;28;20315;-73
2022/02/06 12:54:08;;;;;;;3.10;1.50;;;;;;;6.41;96.03;99248.19;4991503;28;20200;-73
2022/02/06 12:56:34;;;;;;;4.37;2.13;;;;;;;6.33;95.40;99249.78;4991922;28;20206;-72
2022/02/06 12:59:01;;;;;;;3.57;1.93;;;;;;;6.25;95.24;99259.03;4991415;28;20740;-72
2022/02/06 13:01:44;;;;;;;2.60;1.00;;;;;;;6.11;94.97;99256.34;4990603;28;20219;-73
2022/02/06 13:04:13;;;;;;;1.53;0.50;;;;;;;6.01;94.25;99258.75;4991794;28;20210;-72
2022/02/06 13:06:44;;;;;;;0.60;0.50;;;;;;;5.86;92.69;99250.97;4991391;28;20638;-72
2022/02/06 13:09:19;;;;;;;0.97;0.50;;;;;;;5.73;92.57;99277.88;4991437;28;20226;-73
2022/02/06 13:11:50;;;;;;;0.50;0.50;;;;;;;5.73;93.53;99274.47;4991312;28;20222;-73
2022/02/06 13:16:52;;;;;;;2.07;0.50;;;;;;;5.53;93.63;99275.88;4989989;28;20219;-73
2022/02/06 13:19:35;;;;;;;0.70;0.40;;;;;;;5.33;92.72;99264.59;5006067;28;20669;-72
2022/02/06 13:22:23;;;;;;;0.80;0.50;;;;;;;5.30;92.81;99264.56;4991352;28;20207;-73
2022/02/06 13:25:14;;;;;;;1.37;0.50;;;;;;;5.19;92.81;99254.25;4991384;28;20195;-73
2022/02/06 13:28:06;;;;;;;1.60;0.60;;;;;;;5.22;92.84;99248.38;4981616;28;20468;-73
2022/02/06 13:33:16;;;;;;;0.93;0.60;;;;;;;5.19;92.96;99226.34;4990775;28;20598;-73
2022/02/06 13:35:54;;;;;;;1.27;0.87;;;;;;;5.18;93.87;99231.38;4989457;28;20180;-73
2022/02/06 13:38:20;;;;;;;0.80;0.70;;;;;;;5.12;93.93;99216.09;4990120;28;20199;-73
2022/02/06 13:40:49;;;;;;;1.00;0.70;;;;;;;5.17;93.47;99207.72;4989235;28;20277;-72
2022/02/06 13:43:22;;;;;;;1.13;0.60;;;;;;;5.14;93.77;99202.59;4989382;28;20207;-73
2022/02/06 13:45:47;;;;;;;1.80;0.50;;;;;;;5.06;93.13;99203.34;4980927;28;20287;-73
2022/02/06 13:48:16;;;;;;;2.00;0.50;;;;;;;5.00;93.29;99198.16;4989019;28;20619;-73
2022/02/06 13:50:50;;;;;;;1.03;0.70;;;;;;;4.95;93.49;99195.56;4972911;28;20219;-73
2022/02/06 13:53:19;;;;;;;1.17;0.60;;;;;;;5.01;93.64;99203.25;4990433;28;20692;-73
2022/02/06 13:55:49;;;;;;;1.37;0.67;;;;;;;4.94;93.97;99206.53;4989233;28;20681;-73
2022/02/06 13:58:16;;;;;;;1.17;0.50;;;;;;;4.94;93.72;99206.53;4990247;28;20226;-73
2022/02/06 14:00:53;;;;;;;1.23;0.53;;;;;;;4.92;94.19;99212.44;4989060;28;20625;-73
2022/02/06 14:03:19;;;;;;;0.93;0.50;;;;;;;4.91;94.37;99214.09;4981851;28;20422;-73
2022/02/06 14:05:52;;;;;;;1.47;0.50;;;;;;;4.85;94.26;99219.09;4971712;28;20189;-72
2022/02/06 14:08:20;;;;;;;0.97;0.70;;;;;;;4.81;94.13;99211.38;4988960;28;20180;-73
2022/02/06 14:11:14;;;;;;;3.10;1.00;;;;;;;4.79;93.84;99228.28;4989968;28;20208;-73
2022/02/06 14:13:40;;;;;;;2.33;0.70;;;;;;;4.78;94.26;99224.88;4988903;28;20973;-72